PWSweather.com
Personal Weather Stations
Station Observations
WISCHPK61
Green Bay Schmitt Park, Green Bay, WI 54311

Green Bay Schmitt ParkGreen Bay, WI 54311

Lat: 44.514277, Lon: -87.935067

Elevation: 735

Station Type: Acu Rite Pro Weather Center model 02032C

http://greenbayweathercam.com

High Low Average
Temperature 30.8°F-0.7°C 11.1°F-11.6°C 19.3°F-7.1°C
Dew Point 30.6°F-0.8°C 8.1°F-13.3°C 17.8°F-7.9°C
Winds 1.2 mph 1.9 kmh Calm Calm Calm SCalm S
Wind Gusts 3.5 mph5.6 kmh -- --
Humidity 99% 63% 94%
Pressure 29.38 in994.9 mb 29.25 in990.5 mb -
Precipitation 0.00 in0.0 mm - -
Hour Temp Dew Point Humidity Winds Wind Gusts Pressure Precip Precip Rate Daily Precip Total
12:00 AM 9.8°F-12.3°C 9.5°F-12.5°C 99% Calm Calm -- 29.40 in995.6 mb - 0.00 in0.0 mm 0.00 in0.0 mm
01:00 AM 11.1°F-11.6°C 10.8°F-11.8°C 99% Calm Calm -- 29.38 in994.9 mb - 0.00 in0.0 mm 0.00 in0.0 mm
02:00 AM 13.1°F-10.5°C 12.9°F-10.6°C 99% Calm Calm -- 29.34 in993.6 mb - 0.00 in0.0 mm 0.00 in0.0 mm
03:00 AM 14.0°F-10.0°C 13.8°F-10.1°C 99% Calm Calm -- 29.37 in994.6 mb - 0.00 in0.0 mm 0.00 in0.0 mm
04:00 AM 14.0°F-10.0°C 8.1°F-13.3°C 77% Calm Calm -- 29.37 in994.6 mb - 0.00 in0.0 mm 0.00 in0.0 mm
05:00 AM 14.2°F-9.9°C 9.2°F-12.7°C 80% Calm Calm -- 29.35 in993.9 mb - 0.00 in0.0 mm 0.00 in0.0 mm
06:00 AM 14.7°F-9.6°C 14.5°F-9.7°C 99% Calm Calm -- 29.33 in993.2 mb - 0.00 in0.0 mm 0.00 in0.0 mm
07:00 AM 15.3°F-9.3°C 15.1°F-9.4°C 99% Calm Calm -- 29.33 in993.2 mb - 0.00 in0.0 mm 0.00 in0.0 mm
08:00 AM 15.8°F-9.0°C 15.6°F-9.1°C 99% Calm Calm -- 29.31 in992.6 mb - 0.00 in0.0 mm 0.00 in0.0 mm
09:00 AM 17.8°F-7.9°C 14.3°F-9.8°C 86% Calm Calm -- 29.31 in992.6 mb - 0.00 in0.0 mm 0.00 in0.0 mm
10:00 AM 20.3°F-6.5°C 18.1°F-7.7°C 91% Calm Calm -- 29.32 in992.9 mb - 0.00 in0.0 mm 0.00 in0.0 mm
11:00 AM 23.2°F-4.9°C 23.0°F-5.0°C 99% Calm Calm -- 29.33 in993.2 mb - 0.00 in0.0 mm 0.00 in0.0 mm
12:00 PM 27.0°F-2.8°C 26.8°F-2.9°C 99% Calm Calm -- 29.32 in992.9 mb - 0.00 in0.0 mm 0.00 in0.0 mm
01:00 PM 28.2°F-2.1°C 28.0°F-2.2°C 99% Calm Calm -- 29.30 in992.2 mb - 0.00 in0.0 mm 0.00 in0.0 mm
02:00 PM 30.8°F-0.7°C 30.6°F-0.8°C 99% Calm Calm -- 29.29 in991.9 mb - 0.00 in0.0 mm 0.00 in0.0 mm
03:00 PM 26.1°F-3.3°C 25.9°F-3.4°C 99% Calm Calm -- 29.28 in991.5 mb - 0.00 in0.0 mm 0.00 in0.0 mm
04:00 PM 23.7°F-4.6°C 23.5°F-4.7°C 99% Calm Calm 3.5 mph5.6 kmh 29.25 in990.5 mb - 0.00 in0.0 mm 0.00 in0.0 mm
05:00 PM 22.7°F-5.2°C 22.4°F-5.3°C 99% Calm Calm -- 29.27 in991.2 mb - 0.00 in0.0 mm 0.00 in0.0 mm
06:00 PM 20.7°F-6.3°C 10.1°F-12.2°C 63% Calm Calm -- 29.27 in991.2 mb - 0.00 in0.0 mm 0.00 in0.0 mm
07:00 PM 18.3°F-7.6°C 18.1°F-7.7°C 99% 1.2 mph S1.9 kmh S 3.5 mph5.6 kmh 29.28 in991.5 mb - 0.00 in0.0 mm 0.00 in0.0 mm
08:00 PM 18.7°F-7.4°C 18.5°F-7.5°C 99% Calm Calm -- 29.29 in991.9 mb - 0.00 in0.0 mm 0.00 in0.0 mm
09:00 PM 19.0°F-7.2°C 18.8°F-7.3°C 99% Calm Calm -- 29.30 in992.2 mb - 0.00 in0.0 mm 0.00 in0.0 mm
10:00 PM 19.0°F-7.2°C 13.8°F-10.1°C 80% Calm Calm -- 29.32 in992.9 mb - 0.00 in0.0 mm 0.00 in0.0 mm
11:00 PM 19.0°F-7.2°C 18.8°F-7.3°C 99% Calm Calm -- 29.34 in993.6 mb - 0.00 in0.0 mm 0.00 in0.0 mm